Waterville, KS

3:47 PM CDT on August 22, 2019 (GMT -0500)
Marysville | | Change Station
Active Advisory: Flood Warning

Elev 1194 ft 39.84 °N, 96.64 °W | Updated 15 seconds ago

Mostly Cloudy
Mostly Cloudy
81 °F
Feels Like 86 °F
N
3
Wind Variable Wind from ESE
Gusts 4.0 mph

Today
High -- | Low -- °F
--% Chance of Precip.
Yesterday
High -- | Low -- °F
Precip. -- in
Pressure 29.95 in
Visibility 10.0 miles
Clouds Mostly Cloudy 8000 ft
Heat Index 86 °F
Dew Point 73 °F
Humidity 77%
Rainfall 0.00 in
Snow Depth Not available.
6:45 AM 8:13 PM
Waning Gibbous, 58% visible
METAR KMHK 221952Z 09005KT 10SM BKN080 27/21 A2997 RMK AO2 SLP140 T02670211
Pressure 29.95 in
Visibility 10.0 miles
Clouds Mostly Cloudy 8000 ft
Heat Index 86 °F
Dew Point 73 °F
Humidity 77%
Rainfall 0.00 in
Snow Depth Not available.
6:45 AM 8:13 PM
Waning Gibbous, 58% visible
METAR KMHK 221952Z 09005KT 10SM BKN080 27/21 A2997 RMK AO2 SLP140 T02670211

Get Your Daily Forecast Email!

Thanks for signing up!

Be on the lookout for a verification email in your inbox.

You'll start receiving severe weather alerts in your inbox..

×

10-Day Weather Forecast

Almanac

Astronomy

Aug. 22, 2019 Rise Set
Actual Time
Civil Twilight
Nautical Twilight
Astronomical Twilight
Moon
Length of Visible Light
Length of Day
Tomorrow will be .
, % of the Moon is Illuminated

Today's Extremes

State Highs State Lows

Community

WunderPhotos

Category 6

Welcome to Category 6. This is the collective home for Weather Underground's featured writeups by Dr. Jeff Masters (right), Bob Henson (left), Chris Burt, and other regular contributors.

Nearby

Air Quality

  Air Quality AQ Index Pollutant
Not available.

Snow Depth

Station Depth Elevation

Earthquake Activity

City Distance Mag. Time & Date
Minimum magnitude displayed is 2.5.

Coastal Water Temperatures

Place Temperature

Stations

Nearby Weather Stations

Station Location Temp. Windchill Dew Point Humidity Wind Precip. Elev Updated Type
                   

Watches & Warnings

Flood Warning
Issued: 9:53 AM CDT Aug. 22, 2019 – National Weather Service

The Flood Warning continues for
the big Blue River near Blue Rapids.
* Until further notice.
* At 9:15 am Thursday the stage was 40.8 feet.
* Flood stage is 26.0 feet.
* Minor flooding is occurring and minor flooding is forecast.
* Forecast... the river will continue rising to near 40.9 feet by this
afternoon. Additional rises may be possible thereafter.
* Impact... at 26.0 feet... minor lowland flooding occurs from
Marysville to Tuttle Creek Lake.


Lat... Lon 3971 9666 3968 9658 3957 9655 3957 9659 3968 9669